sensor_id;sensor_type;location;lat;lon;timestamp;pressure;altitude;pressure_sealevel;temperature;humidity
6136;BME280;24008;42.664;23.372;2022-10-03T00:01:50;94775.59;;;13.26;66.91
6136;BME280;24008;42.664;23.372;2022-10-03T00:04:30;94733.69;;;12.76;67.10
6136;BME280;24008;42.664;23.372;2022-10-03T00:07:13;94517.72;;;11.64;66.85
6136;BME280;24008;42.664;23.372;2022-10-03T00:10:04;94756.31;;;13.14;66.82
6136;BME280;24008;42.664;23.372;2022-10-03T00:12:40;94760.63;;;13.14;67.27
6136;BME280;24008;42.664;23.372;2022-10-03T00:15:17;94752.25;;;13.12;67.96
6136;BME280;24008;42.664;23.372;2022-10-03T00:17:51;94739.31;;;13.21;68.16
6136;BME280;24008;42.664;23.372;2022-10-03T00:20:37;94738.22;;;13.32;68.68
6136;BME280;24008;42.664;23.372;2022-10-03T00:23:13;94647.50;;;12.91;68.94
6136;BME280;24008;42.664;23.372;2022-10-03T00:25:48;94732.97;;;13.50;68.94
6136;BME280;24008;42.664;23.372;2022-10-03T00:28:40;94609.94;;;12.74;69.54
6136;BME280;24008;42.664;23.372;2022-10-03T00:31:12;94726.88;;;13.51;69.53
6136;BME280;24008;42.664;23.372;2022-10-03T00:33:50;94668.22;;;13.14;69.15
6136;BME280;24008;42.664;23.372;2022-10-03T00:36:26;94730.56;;;13.56;68.93
6136;BME280;24008;42.664;23.372;2022-10-03T00:39:04;94716.72;;;13.33;69.04
6136;BME280;24008;42.664;23.372;2022-10-03T00:45:07;94660.13;;;12.76;69.51
6136;BME280;24008;42.664;23.372;2022-10-03T00:48:10;94705.38;;;12.93;69.76
6136;BME280;24008;42.664;23.372;2022-10-03T00:50:55;94718.91;;;13.12;70.28
6136;BME280;24008;42.664;23.372;2022-10-03T00:53:46;94673.84;;;12.25;70.78
6136;BME280;24008;42.664;23.372;2022-10-03T00:56:30;94770.31;;;12.94;70.98
6136;BME280;24008;42.664;23.372;2022-10-03T00:59:17;94739.13;;;12.81;71.66
6136;BME280;24008;42.664;23.372;2022-10-03T01:01:50;94745.13;;;12.89;71.83
6136;BME280;24008;42.664;23.372;2022-10-03T01:04:43;94643.53;;;12.20;72.14
6136;BME280;24008;42.664;23.372;2022-10-03T01:07:27;94607.94;;;12.09;72.12
6136;BME280;24008;42.664;23.372;2022-10-03T01:10:09;94675.03;;;12.81;72.24
6136;BME280;24008;42.664;23.372;2022-10-03T01:12:58;94720.94;;;12.92;72.10
6136;BME280;24008;42.664;23.372;2022-10-03T01:15:38;94716.25;;;12.87;71.69
6136;BME280;24008;42.664;23.372;2022-10-03T01:18:21;94721.25;;;12.89;72.04
6136;BME280;24008;42.664;23.372;2022-10-03T01:21:00;94716.28;;;12.95;71.90
6136;BME280;24008;42.664;23.372;2022-10-03T01:23:41;94683.09;;;12.52;72.22
6136;BME280;24008;42.664;23.372;2022-10-03T01:26:37;94675.44;;;12.60;72.36
6136;BME280;24008;42.664;23.372;2022-10-03T01:29:10;94620.31;;;12.22;72.37
6136;BME280;24008;42.664;23.372;2022-10-03T01:32:00;94706.44;;;12.83;72.53
6136;BME280;24008;42.664;23.372;2022-10-03T01:34:33;94624.41;;;12.41;72.80
6136;BME280;24008;42.664;23.372;2022-10-03T01:37:07;94620.84;;;12.34;72.39
6136;BME280;24008;42.664;23.372;2022-10-03T01:39:43;94703.72;;;12.76;72.55
6136;BME280;24008;42.664;23.372;2022-10-03T01:42:16;94707.25;;;12.83;72.24
6136;BME280;24008;42.664;23.372;2022-10-03T01:45:02;94704.03;;;12.81;72.67
6136;BME280;24008;42.664;23.372;2022-10-03T01:47:40;94670.31;;;12.60;72.70
6136;BME280;24008;42.664;23.372;2022-10-03T01:50:20;94704.69;;;12.83;72.79
6136;BME280;24008;42.664;23.372;2022-10-03T01:52:55;94702.94;;;12.84;73.44
6136;BME280;24008;42.664;23.372;2022-10-03T01:55:29;94714.00;;;12.84;72.89
6136;BME280;24008;42.664;23.372;2022-10-03T01:58:04;94694.44;;;12.83;72.96
6136;BME280;24008;42.664;23.372;2022-10-03T02:00:42;94688.03;;;12.87;73.05
6136;BME280;24008;42.664;23.372;2022-10-03T02:03:16;94686.94;;;12.90;73.28
6136;BME280;24008;42.664;23.372;2022-10-03T02:05:53;94689.88;;;12.69;73.69
6136;BME280;24008;42.664;23.372;2022-10-03T02:08:29;94687.97;;;12.71;73.38
6136;BME280;24008;42.664;23.372;2022-10-03T02:11:01;94622.59;;;12.25;73.29
6136;BME280;24008;42.664;23.372;2022-10-03T02:13:39;94684.28;;;12.66;73.53
6136;BME280;24008;42.664;23.372;2022-10-03T02:16:10;94687.59;;;12.58;73.68
6136;BME280;24008;42.664;23.372;2022-10-03T02:18:46;94686.34;;;12.62;73.80
6136;BME280;24008;42.664;23.372;2022-10-03T02:21:18;94685.91;;;12.67;73.75
6136;BME280;24008;42.664;23.372;2022-10-03T02:23:48;94514.03;;;11.58;73.88
6136;BME280;24008;42.664;23.372;2022-10-03T02:29:50;94668.53;;;12.52;74.15
6136;BME280;24008;42.664;23.372;2022-10-03T02:35:33;94698.78;;;12.49;75.02
6136;BME280;24008;42.664;23.372;2022-10-03T02:38:17;94650.50;;;12.36;74.98
6136;BME280;24008;42.664;23.372;2022-10-03T02:44:05;94695.75;;;12.19;76.67
6136;BME280;24008;42.664;23.372;2022-10-03T02:47:09;94695.50;;;12.31;77.12
6136;BME280;24008;42.664;23.372;2022-10-03T02:50:06;94691.66;;;12.35;76.81
6136;BME280;24008;42.664;23.372;2022-10-03T02:53:11;94638.50;;;12.11;76.86
6136;BME280;24008;42.664;23.372;2022-10-03T02:59:11;94604.81;;;11.98;76.37
6136;BME280;24008;42.664;23.372;2022-10-03T03:01:51;94607.31;;;12.07;76.11
6136;BME280;24008;42.664;23.372;2022-10-03T03:04:57;94690.38;;;12.73;76.19
6136;BME280;24008;42.664;23.372;2022-10-03T03:07:38;94689.78;;;12.79;76.01
6136;BME280;24008;42.664;23.372;2022-10-03T03:10:31;94686.28;;;12.88;75.98
6136;BME280;24008;42.664;23.372;2022-10-03T03:13:16;94677.31;;;12.92;76.21
6136;BME280;24008;42.664;23.372;2022-10-03T03:18:51;94681.00;;;12.89;75.67
6136;BME280;24008;42.664;23.372;2022-10-03T03:21:36;94679.38;;;12.88;75.75
6136;BME280;24008;42.664;23.372;2022-10-03T03:24:18;94560.56;;;12.13;75.75
6136;BME280;24008;42.664;23.372;2022-10-03T03:27:08;94682.09;;;12.87;75.73
6136;BME280;24008;42.664;23.372;2022-10-03T03:29:44;94614.97;;;12.41;75.42
6136;BME280;24008;42.664;23.372;2022-10-03T03:32:24;94665.09;;;12.78;75.81
6136;BME280;24008;42.664;23.372;2022-10-03T03:35:05;94687.31;;;12.69;76.05
6136;BME280;24008;42.664;23.372;2022-10-03T03:38:02;94673.53;;;12.70;76.24
6136;BME280;24008;42.664;23.372;2022-10-03T03:40:55;94679.03;;;12.75;76.11
6136;BME280;24008;42.664;23.372;2022-10-03T03:43:48;94557.63;;;12.08;76.01
6136;BME280;24008;42.664;23.372;2022-10-03T03:46:29;94663.00;;;12.81;76.32
6136;BME280;24008;42.664;23.372;2022-10-03T03:49:23;94663.94;;;12.80;76.05
6136;BME280;24008;42.664;23.372;2022-10-03T03:52:03;94666.81;;;12.69;76.23
6136;BME280;24008;42.664;23.372;2022-10-03T03:54:48;94655.00;;;12.76;76.66
6136;BME280;24008;42.664;23.372;2022-10-03T03:57:46;94551.91;;;12.14;76.22
6136;BME280;24008;42.664;23.372;2022-10-03T04:00:18;94654.69;;;12.79;76.46
6136;BME280;24008;42.664;23.372;2022-10-03T04:03:12;94596.06;;;12.42;76.80
6136;BME280;24008;42.664;23.372;2022-10-03T04:06:01;94617.69;;;12.48;77.15
6136;BME280;24008;42.664;23.372;2022-10-03T04:08:51;94647.59;;;12.81;77.59
6136;BME280;24008;42.664;23.372;2022-10-03T04:11:34;94597.84;;;12.50;77.77
6136;BME280;24008;42.664;23.372;2022-10-03T04:14:19;94654.53;;;12.89;77.42
6136;BME280;24008;42.664;23.372;2022-10-03T04:17:04;94653.06;;;12.78;77.64
6136;BME280;24008;42.664;23.372;2022-10-03T04:20:04;94563.50;;;12.26;78.14
6136;BME280;24008;42.664;23.372;2022-10-03T04:22:51;94645.69;;;12.83;78.10
6136;BME280;24008;42.664;23.372;2022-10-03T04:28:31;94606.41;;;12.67;77.90
6136;BME280;24008;42.664;23.372;2022-10-03T04:31:23;94626.13;;;12.74;78.52
6136;BME280;24008;42.664;23.372;2022-10-03T04:34:07;94646.06;;;12.96;77.98
6136;BME280;24008;42.664;23.372;2022-10-03T04:36:57;94649.75;;;13.02;78.41
6136;BME280;24008;42.664;23.372;2022-10-03T04:39:34;94648.00;;;13.11;78.84
6136;BME280;24008;42.664;23.372;2022-10-03T04:42:11;94378.06;;;11.27;78.66
6136;BME280;24008;42.664;23.372;2022-10-03T04:44:49;94310.81;;;11.01;78.39
6136;BME280;24008;42.664;23.372;2022-10-03T04:47:24;94655.94;;;13.25;78.10
6136;BME280;24008;42.664;23.372;2022-10-03T04:49:57;94660.25;;;13.25;77.85
6136;BME280;24008;42.664;23.372;2022-10-03T04:52:31;94540.78;;;12.40;77.48
6136;BME280;24008;42.664;23.372;2022-10-03T04:55:17;94552.38;;;12.60;77.32
6136;BME280;24008;42.664;23.372;2022-10-03T04:57:51;94634.59;;;13.25;77.52
6136;BME280;24008;42.664;23.372;2022-10-03T05:00:23;94640.34;;;13.19;77.42
6136;BME280;24008;42.664;23.372;2022-10-03T05:03:00;94372.41;;;11.49;76.96
6136;BME280;24008;42.664;23.372;2022-10-03T05:05:45;94311.94;;;10.98;76.79
6136;BME280;24008;42.664;23.372;2022-10-03T05:08:25;94638.72;;;13.18;77.14
6136;BME280;24008;42.664;23.372;2022-10-03T05:11:03;94570.00;;;12.71;76.58
6136;BME280;24008;42.664;23.372;2022-10-03T05:13:43;94643.41;;;13.30;76.89
6136;BME280;24008;42.664;23.372;2022-10-03T05:16:22;94648.72;;;13.37;76.38
6136;BME280;24008;42.664;23.372;2022-10-03T05:19:09;94647.25;;;13.34;76.25
6136;BME280;24008;42.664;23.372;2022-10-03T05:21:49;94557.53;;;12.76;77.15
6136;BME280;24008;42.664;23.372;2022-10-03T05:24:27;94559.78;;;12.79;77.46
6136;BME280;24008;42.664;23.372;2022-10-03T05:27:10;94617.59;;;13.16;77.33
6136;BME280;24008;42.664;23.372;2022-10-03T05:29:44;94492.41;;;12.45;76.61
6136;BME280;24008;42.664;23.372;2022-10-03T05:32:20;94646.63;;;13.49;76.77
6136;BME280;24008;42.664;23.372;2022-10-03T05:35:14;94643.25;;;13.56;77.25
6136;BME280;24008;42.664;23.372;2022-10-03T05:38:01;94643.09;;;13.66;76.66
6136;BME280;24008;42.664;23.372;2022-10-03T05:40:32;94570.75;;;13.22;77.10
6136;BME280;24008;42.664;23.372;2022-10-03T05:43:05;94615.47;;;13.68;77.70
6136;BME280;24008;42.664;23.372;2022-10-03T05:45:47;94585.78;;;13.65;76.86
6136;BME280;24008;42.664;23.372;2022-10-03T05:48:27;94534.56;;;13.72;76.41
6136;BME280;24008;42.664;23.372;2022-10-03T05:51:20;94616.53;;;14.61;74.46
6136;BME280;24008;42.664;23.372;2022-10-03T05:57:08;94620.31;;;15.04;71.92
6136;BME280;24008;42.664;23.372;2022-10-03T06:05:37;94568.91;;;14.96;70.59
6136;BME280;24008;42.664;23.372;2022-10-03T06:17:46;94648.03;;;15.71;67.52
6136;BME280;24008;42.664;23.372;2022-10-03T06:23:41;94647.13;;;15.64;67.19
6136;BME280;24008;42.664;23.372;2022-10-03T06:26:32;94654.69;;;15.65;67.18
6136;BME280;24008;42.664;23.372;2022-10-03T06:45:12;94655.44;;;17.06;62.65
6136;BME280;24008;42.664;23.372;2022-10-03T06:48:03;94660.88;;;17.11;61.98
6136;BME280;24008;42.664;23.372;2022-10-03T06:50:49;94657.34;;;16.98;61.32
6136;BME280;24008;42.664;23.372;2022-10-03T06:53:41;94548.75;;;15.23;64.54
6136;BME280;24008;42.664;23.372;2022-10-03T06:56:40;94626.75;;;15.92;65.17
6136;BME280;24008;42.664;23.372;2022-10-03T06:59:26;94663.94;;;16.12;65.32
6136;BME280;24008;42.664;23.372;2022-10-03T07:02:14;94663.66;;;16.07;65.74
6136;BME280;24008;42.664;23.372;2022-10-03T07:08:22;94683.81;;;15.89;65.99
6136;BME280;24008;42.664;23.372;2022-10-03T07:11:03;94692.38;;;15.35;66.55
6136;BME280;24008;42.664;23.372;2022-10-03T07:13:58;94641.22;;;14.39;68.57
6136;BME280;24008;42.664;23.372;2022-10-03T07:16:58;94710.84;;;14.85;69.30
6136;BME280;24008;42.664;23.372;2022-10-03T07:19:57;94579.38;;;13.61;70.59
6136;BME280;24008;42.664;23.372;2022-10-03T07:26:23;94741.25;;;14.73;72.13
6136;BME280;24008;42.664;23.372;2022-10-03T07:29:14;94603.41;;;13.77;72.64
6136;BME280;24008;42.664;23.372;2022-10-03T07:31:57;94756.06;;;14.71;74.38
6136;BME280;24008;42.664;23.372;2022-10-03T07:34:43;94751.25;;;14.68;74.82
6136;BME280;24008;42.664;23.372;2022-10-03T07:37:30;94751.88;;;14.62;74.99
6136;BME280;24008;42.664;23.372;2022-10-03T07:40:50;94755.63;;;14.60;75.59
6136;BME280;24008;42.664;23.372;2022-10-03T07:47:08;94769.44;;;14.59;75.48
6136;BME280;24008;42.664;23.372;2022-10-03T07:49:57;94761.88;;;14.57;76.24
6136;BME280;24008;42.664;23.372;2022-10-03T07:55:56;94765.84;;;14.76;76.14
6136;BME280;24008;42.664;23.372;2022-10-03T07:58:46;94769.03;;;14.86;76.21
6136;BME280;24008;42.664;23.372;2022-10-03T08:01:38;94570.06;;;13.60;76.61
6136;BME280;24008;42.664;23.372;2022-10-03T08:07:50;94643.81;;;14.15;74.94
6136;BME280;24008;42.664;23.372;2022-10-03T08:13:34;94758.72;;;14.94;76.45
6136;BME280;24008;42.664;23.372;2022-10-03T08:16:17;94759.53;;;14.95;76.37
6136;BME280;24008;42.664;23.372;2022-10-03T08:19:12;94686.66;;;14.55;75.91
6136;BME280;24008;42.664;23.372;2022-10-03T08:21:52;94772.84;;;15.06;75.90
6136;BME280;24008;42.664;23.372;2022-10-03T08:24:38;94743.16;;;14.80;76.06
6136;BME280;24008;42.664;23.372;2022-10-03T08:30:33;94713.75;;;14.74;77.52
6136;BME280;24008;42.664;23.372;2022-10-03T08:33:27;94718.25;;;14.80;78.07
6136;BME280;24008;42.664;23.372;2022-10-03T08:36:12;94783.72;;;15.17;78.71
6136;BME280;24008;42.664;23.372;2022-10-03T08:38:51;94776.28;;;15.22;79.18
6136;BME280;24008;42.664;23.372;2022-10-03T08:45:00;94771.75;;;15.32;78.45
6136;BME280;24008;42.664;23.372;2022-10-03T08:50:53;94779.91;;;15.43;78.57
6136;BME280;24008;42.664;23.372;2022-10-03T08:53:48;94776.47;;;15.51;77.74
6136;BME280;24008;42.664;23.372;2022-10-03T08:56:21;94778.41;;;15.57;77.78
6136;BME280;24008;42.664;23.372;2022-10-03T09:02:35;94776.28;;;15.83;77.81
6136;BME280;24008;42.664;23.372;2022-10-03T09:09:05;94770.41;;;16.35;77.96
6136;BME280;24008;42.664;23.372;2022-10-03T09:12:06;94725.41;;;16.38;76.18
6136;BME280;24008;42.664;23.372;2022-10-03T09:15:02;94766.59;;;16.83;74.61
6136;BME280;24008;42.664;23.372;2022-10-03T09:21:13;94761.44;;;17.13;73.96
6136;BME280;24008;42.664;23.372;2022-10-03T09:24:02;94761.03;;;17.31;74.51
6136;BME280;24008;42.664;23.372;2022-10-03T09:30:03;94763.19;;;17.63;72.47
6136;BME280;24008;42.664;23.372;2022-10-03T09:35:52;94764.09;;;17.70;70.59
6136;BME280;24008;42.664;23.372;2022-10-03T09:38:54;94729.81;;;17.47;70.52
6136;BME280;24008;42.664;23.372;2022-10-03T09:41:51;94759.91;;;17.69;69.78
6136;BME280;24008;42.664;23.372;2022-10-03T09:45:03;94757.19;;;17.77;69.48
6136;BME280;24008;42.664;23.372;2022-10-03T09:51:07;94753.06;;;18.04;68.39
6136;BME280;24008;42.664;23.372;2022-10-03T09:54:04;94613.28;;;17.20;67.31
6136;BME280;24008;42.664;23.372;2022-10-03T09:56:59;94722.28;;;17.88;66.69
6136;BME280;24008;42.664;23.372;2022-10-03T09:59:39;94647.44;;;17.37;67.00
6136;BME280;24008;42.664;23.372;2022-10-03T10:02:31;94745.50;;;18.03;65.70
6136;BME280;24008;42.664;23.372;2022-10-03T10:05:30;94736.22;;;17.87;65.78
6136;BME280;24008;42.664;23.372;2022-10-03T10:08:24;94742.16;;;17.87;66.00
6136;BME280;24008;42.664;23.372;2022-10-03T10:11:07;94704.28;;;17.73;65.96
6136;BME280;24008;42.664;23.372;2022-10-03T10:14:10;94734.75;;;17.99;65.17
6136;BME280;24008;42.664;23.372;2022-10-03T10:17:07;94717.28;;;18.08;64.85
6136;BME280;24008;42.664;23.372;2022-10-03T10:19:54;94713.63;;;17.95;63.35
6136;BME280;24008;42.664;23.372;2022-10-03T10:23:01;94766.91;;;18.18;62.20
6136;BME280;24008;42.664;23.372;2022-10-03T10:26:11;94696.84;;;17.91;62.17
6136;BME280;24008;42.664;23.372;2022-10-03T10:35:28;94695.94;;;17.99;60.98
6136;BME280;24008;42.664;23.372;2022-10-03T10:38:35;94747.78;;;18.40;61.12
6136;BME280;24008;42.664;23.372;2022-10-03T10:44:44;94742.53;;;18.55;59.76
6136;BME280;24008;42.664;23.372;2022-10-03T10:48:06;94755.53;;;18.61;59.13
6136;BME280;24008;42.664;23.372;2022-10-03T10:57:24;94735.50;;;18.77;58.14
6136;BME280;24008;42.664;23.372;2022-10-03T11:09:44;94706.16;;;18.63;58.15
6136;BME280;24008;42.664;23.372;2022-10-03T11:12:32;94662.03;;;18.15;58.28
6136;BME280;24008;42.664;23.372;2022-10-03T11:25:03;94735.28;;;18.44;58.49
6136;BME280;24008;42.664;23.372;2022-10-03T11:28:06;94744.53;;;18.31;58.10
6136;BME280;24008;42.664;23.372;2022-10-03T11:31:29;94664.25;;;17.69;58.57
6136;BME280;24008;42.664;23.372;2022-10-03T11:34:36;94722.72;;;17.91;59.46
6136;BME280;24008;42.664;23.372;2022-10-03T11:37:30;94750.19;;;17.92;58.86
6136;BME280;24008;42.664;23.372;2022-10-03T11:40:23;94610.66;;;16.48;58.77
6136;BME280;24008;42.664;23.372;2022-10-03T11:43:01;94551.22;;;16.56;58.69
6136;BME280;24008;42.664;23.372;2022-10-03T11:45:34;94756.34;;;17.70;58.62
6136;BME280;24008;42.664;23.372;2022-10-03T11:48:25;94745.72;;;17.65;58.88
6136;BME280;24008;42.664;23.372;2022-10-03T11:50:59;94643.19;;;16.93;58.52
6136;BME280;24008;42.664;23.372;2022-10-03T11:53:40;94656.66;;;17.25;58.73
6136;BME280;24008;42.664;23.372;2022-10-03T11:56:31;94747.22;;;17.74;58.80
6136;BME280;24008;42.664;23.372;2022-10-03T11:59:14;94711.16;;;17.51;58.85
6136;BME280;24008;42.664;23.372;2022-10-03T12:01:59;94739.22;;;17.69;58.74
6136;BME280;24008;42.664;23.372;2022-10-03T12:04:39;94728.53;;;17.72;58.87
6136;BME280;24008;42.664;23.372;2022-10-03T12:07:18;94658.94;;;17.35;58.96
6136;BME280;24008;42.664;23.372;2022-10-03T12:10:13;94722.72;;;17.70;58.59
6136;BME280;24008;42.664;23.372;2022-10-03T12:12:50;94635.34;;;17.02;58.96
6136;BME280;24008;42.664;23.372;2022-10-03T12:15:30;94723.19;;;17.59;59.00
6136;BME280;24008;42.664;23.372;2022-10-03T12:18:05;94687.97;;;17.37;58.48
6136;BME280;24008;42.664;23.372;2022-10-03T12:20:55;94722.19;;;17.39;58.80
6136;BME280;24008;42.664;23.372;2022-10-03T12:23:33;94717.88;;;17.46;59.64
6136;BME280;24008;42.664;23.372;2022-10-03T12:26:06;94691.03;;;17.25;59.51
6136;BME280;24008;42.664;23.372;2022-10-03T12:28:43;94714.31;;;17.47;59.49
6136;BME280;24008;42.664;23.372;2022-10-03T12:31:17;94706.28;;;17.42;58.54
6136;BME280;24008;42.664;23.372;2022-10-03T12:33:53;94697.06;;;17.33;57.67
6136;BME280;24008;42.664;23.372;2022-10-03T12:36:26;94718.72;;;17.53;57.30
6136;BME280;24008;42.664;23.372;2022-10-03T12:39:00;94707.81;;;17.51;56.56
6136;BME280;24008;42.664;23.372;2022-10-03T12:41:46;94697.34;;;17.38;56.39
6136;BME280;24008;42.664;23.372;2022-10-03T12:44:28;94703.22;;;17.53;55.39
6136;BME280;24008;42.664;23.372;2022-10-03T12:47:12;94715.13;;;17.47;55.57
6136;BME280;24008;42.664;23.372;2022-10-03T12:49:51;94718.25;;;17.43;55.90
6136;BME280;24008;42.664;23.372;2022-10-03T12:52:23;94699.63;;;17.47;56.40
6136;BME280;24008;42.664;23.372;2022-10-03T12:55:03;94705.22;;;17.51;55.09
6136;BME280;24008;42.664;23.372;2022-10-03T12:57:53;94661.66;;;17.26;54.37
6136;BME280;24008;42.664;23.372;2022-10-03T13:00:31;94658.44;;;17.24;54.20
6136;BME280;24008;42.664;23.372;2022-10-03T13:03:19;94703.38;;;17.66;54.50
6136;BME280;24008;42.664;23.372;2022-10-03T13:06:19;94676.97;;;17.49;54.01
6136;BME280;24008;42.664;23.372;2022-10-03T13:09:01;94715.34;;;17.67;53.85
6136;BME280;24008;42.664;23.372;2022-10-03T13:11:38;94722.19;;;17.96;53.01
6136;BME280;24008;42.664;23.372;2022-10-03T13:14:25;94697.50;;;17.72;51.85
6136;BME280;24008;42.664;23.372;2022-10-03T13:17:03;94721.59;;;18.00;51.36
6136;BME280;24008;42.664;23.372;2022-10-03T13:19:46;94717.84;;;18.03;51.76
6136;BME280;24008;42.664;23.372;2022-10-03T13:22:33;94687.03;;;17.80;51.73
6136;BME280;24008;42.664;23.372;2022-10-03T13:25:09;94727.53;;;17.94;50.82
6136;BME280;24008;42.664;23.372;2022-10-03T13:27:43;94717.38;;;17.93;51.20
6136;BME280;24008;42.664;23.372;2022-10-03T13:30:17;94695.00;;;17.64;51.23
6136;BME280;24008;42.664;23.372;2022-10-03T13:32:49;94717.91;;;17.88;52.54
6136;BME280;24008;42.664;23.372;2022-10-03T13:35:32;94677.16;;;17.48;52.24
6136;BME280;24008;42.664;23.372;2022-10-03T13:38:43;94713.13;;;17.85;51.03
6136;BME280;24008;42.664;23.372;2022-10-03T13:41:25;94723.47;;;17.85;50.89
6136;BME280;24008;42.664;23.372;2022-10-03T13:43:57;94673.47;;;17.57;50.61
6136;BME280;24008;42.664;23.372;2022-10-03T13:46:30;94715.78;;;17.71;49.66
6136;BME280;24008;42.664;23.372;2022-10-03T13:49:10;94661.25;;;17.29;50.33
6136;BME280;24008;42.664;23.372;2022-10-03T13:51:50;94728.00;;;17.62;50.07
6136;BME280;24008;42.664;23.372;2022-10-03T13:54:23;94728.09;;;17.54;50.50
6136;BME280;24008;42.664;23.372;2022-10-03T13:57:05;94719.53;;;17.53;50.47
6136;BME280;24008;42.664;23.372;2022-10-03T13:59:49;94708.16;;;17.26;50.55
6136;BME280;24008;42.664;23.372;2022-10-03T14:02:35;94520.34;;;15.98;50.60
6136;BME280;24008;42.664;23.372;2022-10-03T14:05:22;94723.41;;;17.43;50.76
6136;BME280;24008;42.664;23.372;2022-10-03T14:08:03;94726.97;;;17.42;51.13
6136;BME280;24008;42.664;23.372;2022-10-03T14:10:51;94721.09;;;17.48;51.35
6136;BME280;24008;42.664;23.372;2022-10-03T14:13:30;94713.06;;;17.43;51.30
6136;BME280;24008;42.664;23.372;2022-10-03T14:16:02;94721.72;;;17.50;51.99
6136;BME280;24008;42.664;23.372;2022-10-03T14:18:43;94725.63;;;17.46;50.66
6136;BME280;24008;42.664;23.372;2022-10-03T14:24:50;94714.44;;;17.39;50.90
6136;BME280;24008;42.664;23.372;2022-10-03T14:27:35;94685.88;;;17.25;51.57
6136;BME280;24008;42.664;23.372;2022-10-03T14:30:05;94660.09;;;16.96;50.78
6136;BME280;24008;42.664;23.372;2022-10-03T14:32:40;94700.94;;;17.22;50.53
6136;BME280;24008;42.664;23.372;2022-10-03T14:35:20;94738.41;;;17.33;50.53
6136;BME280;24008;42.664;23.372;2022-10-03T14:37:55;94730.03;;;17.31;50.69
6136;BME280;24008;42.664;23.372;2022-10-03T14:40:28;94736.75;;;17.25;50.20
6136;BME280;24008;42.664;23.372;2022-10-03T14:43:10;94733.53;;;17.23;49.43
6136;BME280;24008;42.664;23.372;2022-10-03T14:45:47;94737.19;;;17.14;49.79
6136;BME280;24008;42.664;23.372;2022-10-03T14:48:18;94621.00;;;16.34;50.71
6136;BME280;24008;42.664;23.372;2022-10-03T14:50:49;94728.84;;;16.97;50.82
6136;BME280;24008;42.664;23.372;2022-10-03T14:53:21;94748.88;;;17.10;50.33
6136;BME280;24008;42.664;23.372;2022-10-03T14:55:57;94744.06;;;17.07;49.77
6136;BME280;24008;42.664;23.372;2022-10-03T14:58:27;94751.09;;;16.98;50.30
6136;BME280;24008;42.664;23.372;2022-10-03T15:01:03;94683.78;;;16.55;51.16
6136;BME280;24008;42.664;23.372;2022-10-03T15:03:37;94730.56;;;16.75;52.21
6136;BME280;24008;42.664;23.372;2022-10-03T15:06:47;94721.91;;;16.83;55.57
6136;BME280;24008;42.664;23.372;2022-10-03T15:09:21;94726.63;;;16.79;54.02
6136;BME280;24008;42.664;23.372;2022-10-03T15:11:53;94636.47;;;16.19;53.30
6136;BME280;24008;42.664;23.372;2022-10-03T15:14:26;94685.66;;;16.47;53.66
6136;BME280;24008;42.664;23.372;2022-10-03T15:16:56;94737.75;;;16.80;54.04
6136;BME280;24008;42.664;23.372;2022-10-03T15:19:29;94749.16;;;16.85;54.57
6136;BME280;24008;42.664;23.372;2022-10-03T15:22:13;94717.91;;;16.66;53.99
6136;BME280;24008;42.664;23.372;2022-10-03T15:24:45;94766.06;;;16.88;53.84
6136;BME280;24008;42.664;23.372;2022-10-03T15:27:19;94765.97;;;16.81;54.10
6136;BME280;24008;42.664;23.372;2022-10-03T15:29:51;94776.00;;;16.91;54.92
6136;BME280;24008;42.664;23.372;2022-10-03T15:32:21;94771.31;;;16.95;54.53
6136;BME280;24008;42.664;23.372;2022-10-03T15:34:52;94772.22;;;16.87;53.00
6136;BME280;24008;42.664;23.372;2022-10-03T15:37:23;94745.34;;;16.44;53.08
6136;BME280;24008;42.664;23.372;2022-10-03T15:39:59;94668.28;;;16.11;53.54
6136;BME280;24008;42.664;23.372;2022-10-03T15:42:30;94703.84;;;16.01;53.90
6136;BME280;24008;42.664;23.372;2022-10-03T15:45:01;94594.09;;;15.46;53.93
6136;BME280;24008;42.664;23.372;2022-10-03T15:47:31;94718.97;;;16.19;54.72
6136;BME280;24008;42.664;23.372;2022-10-03T15:50:02;94780.22;;;16.54;54.47
6136;BME280;24008;42.664;23.372;2022-10-03T15:52:34;94793.56;;;16.43;54.48
6136;BME280;24008;42.664;23.372;2022-10-03T15:55:10;94799.44;;;16.37;54.89
6136;BME280;24008;42.664;23.372;2022-10-03T15:57:43;94792.19;;;16.33;55.09
6136;BME280;24008;42.664;23.372;2022-10-03T16:00:20;94796.97;;;16.21;54.56
6136;BME280;24008;42.664;23.372;2022-10-03T16:02:55;94641.38;;;15.08;54.66
6136;BME280;24008;42.664;23.372;2022-10-03T16:05:25;94790.28;;;16.12;58.96
6136;BME280;24008;42.664;23.372;2022-10-03T16:07:56;94801.31;;;16.06;56.39
6136;BME280;24008;42.664;23.372;2022-10-03T16:10:27;94750.19;;;15.64;55.59
6136;BME280;24008;42.664;23.372;2022-10-03T16:13:01;94814.41;;;15.96;55.20
6136;BME280;24008;42.664;23.372;2022-10-03T16:15:48;94756.19;;;15.48;54.97
6136;BME280;24008;42.664;23.372;2022-10-03T16:18:50;94837.25;;;15.76;55.69
6136;BME280;24008;42.664;23.372;2022-10-03T16:21:28;94835.69;;;15.67;55.69
6136;BME280;24008;42.664;23.372;2022-10-03T16:23:57;94831.66;;;15.65;56.09
6136;BME280;24008;42.664;23.372;2022-10-03T16:26:28;94837.31;;;15.60;56.06
6136;BME280;24008;42.664;23.372;2022-10-03T16:29:06;94795.75;;;15.24;55.83
6136;BME280;24008;42.664;23.372;2022-10-03T16:31:40;94849.91;;;15.55;55.93
6136;BME280;24008;42.664;23.372;2022-10-03T16:34:12;94812.00;;;15.33;55.94
6136;BME280;24008;42.664;23.372;2022-10-03T16:36:42;94849.91;;;15.55;55.92
6136;BME280;24008;42.664;23.372;2022-10-03T16:39:18;94858.91;;;15.51;55.48
6136;BME280;24008;42.664;23.372;2022-10-03T16:41:48;94860.84;;;15.49;56.12
6136;BME280;24008;42.664;23.372;2022-10-03T16:44:23;94858.59;;;15.46;55.71
6136;BME280;24008;42.664;23.372;2022-10-03T16:46:52;94857.19;;;15.43;55.80
6136;BME280;24008;42.664;23.372;2022-10-03T16:49:32;94868.63;;;15.41;56.23
6136;BME280;24008;42.664;23.372;2022-10-03T16:52:20;94868.47;;;15.34;56.51